createdAt,value
2023-01-02T00:00:21.279Z,100325.47
2023-01-02T00:02:47.912Z,100299.66
2023-01-02T00:05:14.605Z,100346.88
2023-01-02T00:07:40.966Z,100324.09
2023-01-02T00:10:07.685Z,100325.91
2023-01-02T00:12:34.034Z,100364.25
2023-01-02T00:15:00.494Z,100422.38
2023-01-02T00:17:26.813Z,100399.59
2023-01-02T00:19:53.180Z,100406.59
2023-01-02T00:22:19.624Z,100391.16
2023-01-02T00:24:45.972Z,100327.31
2023-01-02T00:27:12.308Z,100410.44
2023-01-02T00:29:38.607Z,100290.72
2023-01-02T00:32:05.255Z,100412.69
2023-01-02T00:34:31.716Z,100421.34
2023-01-02T00:36:58.107Z,100438.75
2023-01-02T00:39:24.604Z,100384.84
2023-01-02T00:41:51.004Z,100420.75
2023-01-02T00:44:17.395Z,100414.50
2023-01-02T00:46:43.922Z,100412.31
2023-01-02T00:49:10.358Z,100411.03
2023-01-02T00:51:36.684Z,100413.34
2023-01-02T00:54:03.104Z,100347.50
2023-01-02T00:56:29.451Z,100396.44
2023-01-02T00:58:55.808Z,100420.19
2023-01-02T01:01:22.216Z,100376.59
2023-01-02T01:03:48.639Z,100405.13
2023-01-02T01:06:15.149Z,100437.19
2023-01-02T01:08:41.504Z,100404.25
2023-01-02T01:11:10.553Z,100325.34
2023-01-02T01:13:37.045Z,100393.97
2023-01-02T01:16:08.486Z,100400.81
2023-01-02T01:18:35.481Z,100406.47
2023-01-02T01:21:13.076Z,100376.34
2023-01-02T01:23:39.636Z,100395.09
2023-01-02T01:26:12.783Z,100380.91
2023-01-02T01:28:39.290Z,100387.50
2023-01-02T01:31:08.375Z,100337.34
2023-01-02T01:33:34.895Z,100346.88
2023-01-02T01:36:05.967Z,100381.22
2023-01-02T01:38:32.848Z,100404.41
2023-01-02T01:40:59.667Z,100392.88
2023-01-02T01:43:35.241Z,100412.88
2023-01-02T01:46:02.374Z,100379.09
2023-01-02T01:48:29.468Z,100310.75
2023-01-02T01:50:55.893Z,100266.09
2023-01-02T01:53:23.653Z,100370.50
2023-01-02T01:55:58.725Z,100434.50
2023-01-02T01:58:33.301Z,100220.91
2023-01-02T02:01:00.242Z,100277.25
2023-01-02T02:03:30.555Z,100356.44
2023-01-02T02:05:58.372Z,100317.34
2023-01-02T02:08:49.541Z,100372.69
2023-01-02T02:11:17.145Z,100421.13
2023-01-02T02:13:43.651Z,100399.78
2023-01-02T02:16:25.068Z,100441.06
2023-01-02T02:19:40.471Z,100440.84
2023-01-02T02:22:18.988Z,100453.53
2023-01-02T02:25:17.796Z,100427.22
2023-01-02T02:28:15.033Z,100424.78
2023-01-02T02:30:48.783Z,100387.47
2023-01-02T02:33:38.774Z,100417.31
2023-01-02T02:36:22.304Z,100402.06
2023-01-02T02:39:06.194Z,100376.22
2023-01-02T02:41:34.225Z,100411.53
2023-01-02T02:44:31.495Z,100410.03
2023-01-02T02:47:46.126Z,100411.22
2023-01-02T02:50:27.160Z,100430.16
2023-01-02T02:53:21.013Z,100425.84
2023-01-02T02:55:52.122Z,100436.16
2023-01-02T02:58:20.411Z,100415.28
2023-01-02T03:00:47.171Z,100431.25
2023-01-02T03:03:15.600Z,100441.41
2023-01-02T03:05:46.735Z,100399.34
2023-01-02T03:09:00.104Z,100427.25
2023-01-02T03:11:52.142Z,100365.63
2023-01-02T03:14:28.378Z,100426.84
2023-01-02T03:17:02.530Z,100404.22
2023-01-02T03:19:52.307Z,100417.72
2023-01-02T03:22:23.035Z,100419.75
2023-01-02T03:24:53.966Z,100392.38
2023-01-02T03:27:28.060Z,100413.13
2023-01-02T03:30:01.656Z,100401.25
2023-01-02T03:32:32.381Z,100408.44
2023-01-02T03:35:03.590Z,100388.72
2023-01-02T03:37:33.971Z,100410.34
2023-01-02T03:40:07.805Z,100438.25
2023-01-02T03:42:42.062Z,100393.97
2023-01-02T03:45:15.811Z,100352.16
2023-01-02T03:48:02.380Z,100441.22
2023-01-02T03:50:36.380Z,100439.63
2023-01-02T03:53:02.771Z,100410.78
2023-01-02T03:55:34.553Z,100343.06
2023-01-02T03:58:27.305Z,100449.34
2023-01-02T04:01:05.022Z,100426.97
2023-01-02T04:03:36.240Z,100435.97
2023-01-02T04:06:13.939Z,100428.25
2023-01-02T04:08:44.607Z,100457.03
2023-01-02T04:11:14.635Z,100429.56
2023-01-02T04:13:46.837Z,100462.56
2023-01-02T04:16:18.704Z,100371.97
2023-01-02T04:18:54.932Z,100455.69
2023-01-02T04:21:25.938Z,100455.03
2023-01-02T04:23:59.331Z,100435.09
2023-01-02T04:26:37.084Z,100415.09
2023-01-02T04:29:03.785Z,100453.41
2023-01-02T04:31:43.727Z,100449.88
2023-01-02T04:34:15.268Z,100449.97
2023-01-02T04:36:41.907Z,100406.06
2023-01-02T04:39:09.039Z,100452.03
2023-01-02T04:41:37.787Z,100451.25
2023-01-02T04:44:04.578Z,100420.78
2023-01-02T04:46:31.080Z,100414.28
2023-01-02T04:48:57.486Z,100408.59
2023-01-02T04:51:24.604Z,100460.66
2023-01-02T04:53:52.728Z,100428.91
2023-01-02T04:56:19.983Z,100451.97
2023-01-02T04:58:46.988Z,100414.50
2023-01-02T05:01:16.143Z,100472.50
2023-01-02T05:03:44.091Z,100443.59
2023-01-02T05:06:10.948Z,100473.97
2023-01-02T05:08:38.031Z,100490.13
2023-01-02T05:11:14.023Z,100485.84
2023-01-02T05:13:40.403Z,100438.97
2023-01-02T05:16:07.448Z,100464.50
2023-01-02T05:18:33.931Z,100489.53
2023-01-02T05:21:32.619Z,100491.00
2023-01-02T05:24:01.854Z,100347.66
2023-01-02T05:26:30.655Z,100426.53
2023-01-02T05:28:57.003Z,100502.25
2023-01-02T05:31:23.368Z,100471.69
2023-01-02T05:33:58.308Z,100491.50
2023-01-02T05:36:25.656Z,100458.97
2023-01-02T05:38:52.608Z,100503.53
2023-01-02T05:41:20.349Z,100475.53
2023-01-02T05:43:46.688Z,100490.88
2023-01-02T05:46:20.291Z,100507.25
2023-01-02T05:48:47.366Z,100439.84
2023-01-02T05:51:16.292Z,100516.28
2023-01-02T05:53:43.366Z,100390.84
2023-01-02T05:56:12.561Z,100501.31
2023-01-02T05:58:40.661Z,100472.88
2023-01-02T06:01:11.979Z,100533.25
2023-01-02T06:03:39.070Z,100502.25
2023-01-02T06:06:10.347Z,100529.63
2023-01-02T06:08:38.001Z,100524.25
2023-01-02T06:11:05.375Z,100398.44
2023-01-02T06:13:33.229Z,100476.75
2023-01-02T06:16:01.466Z,100518.13
2023-01-02T06:18:30.295Z,100537.41
2023-01-02T06:21:05.183Z,100545.97
2023-01-02T06:23:31.624Z,100480.56
2023-01-02T06:26:10.219Z,100537.41
2023-01-02T06:28:37.211Z,100469.09
2023-01-02T06:31:06.115Z,100548.44
2023-01-02T06:33:33.102Z,100512.00
2023-01-02T06:36:13.581Z,100561.56
2023-01-02T06:38:40.203Z,100563.19
2023-01-02T06:41:08.067Z,100533.97
2023-01-02T06:43:36.234Z,100566.72
2023-01-02T06:46:04.755Z,100488.28
2023-01-02T06:48:32.434Z,100492.09
2023-01-02T06:51:01.697Z,100486.75
2023-01-02T06:53:28.586Z,100570.78
2023-01-02T06:55:58.842Z,100554.47
2023-01-02T06:58:28.676Z,100568.66
2023-01-02T07:00:55.077Z,100562.31
2023-01-02T07:03:21.452Z,100486.94
2023-01-02T07:05:50.349Z,100570.53
2023-01-02T07:08:16.693Z,100586.88
2023-01-02T07:10:45.584Z,100546.22
2023-01-02T07:13:15.761Z,100562.88
2023-01-02T07:15:42.133Z,100571.78
2023-01-02T07:18:08.566Z,100580.66
2023-01-02T07:20:34.976Z,100439.16
2023-01-02T07:23:01.448Z,100620.50
2023-01-02T07:25:27.819Z,100522.75
2023-01-02T07:27:54.213Z,100619.16
2023-01-02T07:30:20.642Z,100519.28
2023-01-02T07:32:47.036Z,100538.84
2023-01-02T07:35:16.621Z,100632.88
2023-01-02T07:37:49.013Z,100454.31
2023-01-02T07:40:15.407Z,100627.44
2023-01-02T07:42:44.525Z,100653.06
2023-01-02T07:45:11.221Z,100578.03
2023-01-02T07:47:37.715Z,100635.75
2023-01-02T07:50:04.393Z,100524.75
2023-01-02T07:52:30.834Z,100598.69
2023-01-02T07:54:59.557Z,100524.63
2023-01-02T07:57:25.925Z,100670.44
2023-01-02T07:59:52.303Z,100662.19
2023-01-02T08:02:18.772Z,100568.13
2023-01-02T08:04:45.217Z,100605.19
2023-01-02T08:07:11.663Z,100611.75
2023-01-02T08:09:38.218Z,100634.13
2023-01-02T08:12:10.226Z,100516.41
2023-01-02T08:14:37.331Z,100596.56
2023-01-02T08:17:03.866Z,100693.34
2023-01-02T08:19:30.382Z,100586.78
2023-01-02T08:21:56.863Z,100678.88
2023-01-02T08:24:25.787Z,100629.03
2023-01-02T08:26:52.340Z,100792.66
2023-01-02T08:29:18.795Z,100691.41
2023-01-02T08:31:45.304Z,100735.75
2023-01-02T08:34:15.231Z,100755.06
2023-01-02T08:36:42.185Z,100656.53
2023-01-02T08:39:08.623Z,100638.41
2023-01-02T08:41:40.924Z,100828.13
2023-01-02T08:44:07.829Z,100709.31
2023-01-02T08:46:40.319Z,100832.09
2023-01-02T08:49:09.347Z,100794.91
2023-01-02T08:51:35.702Z,100826.41
2023-01-02T08:54:02.027Z,100803.41
2023-01-02T08:56:31.221Z,100779.81
2023-01-02T08:59:03.076Z,100830.94
2023-01-02T09:02:25.671Z,100860.53
2023-01-02T09:04:52.253Z,100796.88
2023-01-02T09:07:18.697Z,100797.91
2023-01-02T09:09:45.142Z,100786.22
2023-01-02T09:12:11.845Z,100796.38
2023-01-02T09:14:38.718Z,100783.41
2023-01-02T09:17:05.251Z,100802.56
2023-01-02T09:19:31.719Z,100764.41
2023-01-02T09:22:10.531Z,100728.13
2023-01-02T09:24:37.006Z,100860.25
2023-01-02T09:27:07.750Z,100835.31
2023-01-02T09:29:34.257Z,100846.34
2023-01-02T09:32:04.085Z,100729.63
2023-01-02T09:34:30.743Z,100726.75
2023-01-02T09:36:58.864Z,100787.13
2023-01-02T09:39:31.911Z,100817.41
2023-01-02T09:42:00.720Z,100811.41
2023-01-02T09:44:33.326Z,100864.19
2023-01-02T09:47:13.372Z,100833.69
2023-01-02T09:49:54.684Z,100907.16
2023-01-02T09:52:38.480Z,100911.56
2023-01-02T09:55:15.799Z,100873.06
2023-01-02T09:57:57.359Z,100934.91
2023-01-02T10:00:26.984Z,100904.06
2023-01-02T10:03:20.322Z,100971.38
2023-01-02T10:06:06.002Z,100969.13
2023-01-02T10:08:57.339Z,100947.06
2023-01-02T10:11:23.638Z,100969.91
2023-01-02T10:14:20.863Z,100952.31
2023-01-02T10:16:52.286Z,100896.94
2023-01-02T10:19:25.576Z,100911.44
2023-01-02T10:21:58.477Z,100967.97
2023-01-02T10:24:40.292Z,100977.00
2023-01-02T10:27:13.022Z,100955.13
2023-01-02T10:29:45.694Z,100966.69
2023-01-02T10:32:18.119Z,100891.34
2023-01-02T10:35:13.706Z,100980.59
2023-01-02T10:37:40.148Z,100914.88
2023-01-02T10:40:06.859Z,100903.72
2023-01-02T10:53:51.270Z,100978.78
2023-01-02T10:56:19.749Z,100799.00
2023-01-02T10:58:51.136Z,100981.03
2023-01-02T11:01:21.831Z,100979.31
2023-01-02T11:04:10.432Z,100983.31
2023-01-02T11:06:50.202Z,100974.63
2023-01-02T11:09:23.239Z,100967.16
2023-01-02T11:11:53.165Z,100977.72
2023-01-02T11:14:38.463Z,100915.72
2023-01-02T11:17:16.150Z,101005.13
2023-01-02T11:19:50.454Z,100905.03
2023-01-02T11:22:18.576Z,101006.75
2023-01-02T11:25:00.757Z,100991.53
2023-01-02T11:27:39.795Z,100963.72
2023-01-02T11:30:08.933Z,100969.25
2023-01-02T11:32:41.056Z,100903.13
2023-01-02T11:35:33.905Z,101002.22
2023-01-02T11:38:02.399Z,100979.66
2023-01-02T11:40:31.135Z,101000.94
2023-01-02T11:43:24.350Z,101011.25
2023-01-02T11:45:52.774Z,100997.66
2023-01-02T11:48:22.629Z,101011.44
2023-01-02T11:50:50.768Z,100997.59
2023-01-02T11:53:27.260Z,101009.31
2023-01-02T11:56:06.131Z,100990.47
2023-01-02T11:58:54.275Z,101027.50
2023-01-02T12:01:42.803Z,100990.63
2023-01-02T12:04:10.071Z,100982.81
2023-01-02T12:07:02.498Z,101005.47
2023-01-02T12:09:58.153Z,101025.41
2023-01-02T12:12:45.915Z,101022.25
2023-01-02T12:15:35.530Z,100996.38
2023-01-02T12:18:11.825Z,101017.53
2023-01-02T12:20:55.356Z,100887.53
2023-01-02T12:23:33.892Z,101051.31
2023-01-02T12:26:09.395Z,100957.41
2023-01-02T12:28:46.758Z,101033.25
2023-01-02T12:31:29.367Z,101015.38
2023-01-02T12:37:56.804Z,101024.94
2023-01-02T12:40:36.495Z,101061.91
2023-01-02T12:43:21.264Z,101063.06
2023-01-02T12:46:06.794Z,101049.78
2023-01-02T12:48:36.086Z,101048.16
2023-01-02T12:51:12.132Z,101030.22
2023-01-02T12:54:18.897Z,101048.34
2023-01-02T12:57:25.771Z,100989.88
2023-01-02T13:00:08.038Z,101055.91
2023-01-02T13:02:49.955Z,101073.31
2023-01-02T13:05:25.145Z,101091.59
2023-01-02T13:08:06.909Z,100871.47
2023-01-02T13:10:34.963Z,101018.34
2023-01-02T13:13:02.200Z,101057.59
2023-01-02T13:15:58.110Z,100938.91
2023-01-02T13:18:37.593Z,101076.94
2023-01-02T13:21:32.677Z,100986.31
2023-01-02T13:24:00.303Z,100992.06
2023-01-02T13:26:32.738Z,101020.53
2023-01-02T13:29:18.723Z,101087.06
2023-01-02T13:31:52.722Z,100992.06
2023-01-02T13:34:25.192Z,101058.06
2023-01-02T13:37:03.293Z,100889.06
2023-01-02T13:39:39.055Z,101087.50
2023-01-02T13:42:26.310Z,100873.47
2023-01-02T13:45:01.554Z,101014.34
2023-01-02T13:47:51.279Z,100905.56
2023-01-02T13:50:38.815Z,101095.50
2023-01-02T13:53:11.320Z,101093.59
2023-01-02T13:55:40.867Z,101103.16
2023-01-02T13:58:15.775Z,101108.13
2023-01-02T14:00:51.594Z,101127.41
2023-01-02T14:03:23.976Z,101101.84
2023-01-02T14:06:04.196Z,101053.94
2023-01-02T14:08:40.039Z,100963.22
2023-01-02T14:11:09.622Z,101126.69
2023-01-02T14:13:44.187Z,101036.19
2023-01-02T14:16:25.246Z,101097.66
2023-01-02T14:19:05.751Z,101143.56
2023-01-02T14:21:40.452Z,101000.16
2023-01-02T14:24:16.743Z,101012.22
2023-01-02T14:26:55.535Z,100944.94
2023-01-02T14:29:25.389Z,101008.72
2023-01-02T14:32:03.920Z,101079.53
2023-01-02T14:34:33.238Z,101086.50
2023-01-02T14:37:02.017Z,100970.91
2023-01-02T14:39:33.705Z,101005.53
2023-01-02T14:42:31.976Z,101118.00
2023-01-02T14:45:03.240Z,101060.69
2023-01-02T14:48:01.413Z,101024.22
2023-01-02T14:50:34.469Z,101047.66
2023-01-02T14:53:15.751Z,101044.47
2023-01-02T14:55:44.277Z,101158.50
2023-01-02T14:58:18.290Z,101017.63
2023-01-02T15:00:47.125Z,101102.50
2023-01-02T15:03:43.403Z,101119.72
2023-01-02T15:06:28.084Z,101080.19
2023-01-02T15:08:57.799Z,101196.28
2023-01-02T15:11:44.974Z,101000.75
2023-01-02T15:14:23.821Z,101130.72
2023-01-02T15:16:56.033Z,101049.41
2023-01-02T15:19:27.738Z,101186.56
2023-01-02T15:21:54.986Z,100979.09
2023-01-02T15:24:27.285Z,101072.34
2023-01-02T15:27:22.021Z,101153.41
2023-01-02T15:29:53.079Z,101151.88
2023-01-02T15:32:38.915Z,101088.66
2023-01-02T15:35:37.734Z,101248.78
2023-01-02T15:38:05.257Z,101164.28
2023-01-02T15:40:35.201Z,101245.53
2023-01-02T15:43:23.591Z,101249.00
2023-01-02T15:45:52.105Z,101136.59
2023-01-02T15:48:22.392Z,101257.91
2023-01-02T15:50:52.032Z,101254.34
2023-01-02T15:53:30.192Z,101160.75
2023-01-02T15:55:58.007Z,101200.94
2023-01-02T15:58:30.478Z,101264.09
2023-01-02T16:01:10.254Z,101169.88
2023-01-02T16:04:00.569Z,101286.13
2023-01-02T16:06:30.444Z,101189.00
2023-01-02T16:09:02.044Z,101207.78
2023-01-02T16:11:29.750Z,101080.56
2023-01-02T16:14:19.359Z,101223.50
2023-01-02T16:16:50.518Z,101162.94
2023-01-02T16:19:23.685Z,101248.81
2023-01-02T16:21:53.828Z,101336.56
2023-01-02T16:24:23.482Z,101245.03
2023-01-02T16:26:50.404Z,101280.47
2023-01-02T16:29:20.006Z,101192.13
2023-01-02T16:32:01.270Z,101358.53
2023-01-02T16:34:35.865Z,101360.53
2023-01-02T16:37:33.055Z,101329.38
2023-01-02T16:40:59.674Z,101196.50
2023-01-02T16:43:13.687Z,101272.91
2023-01-02T16:45:47.436Z,101196.66
2023-01-02T16:48:17.134Z,101166.34
2023-01-02T16:50:45.817Z,101183.72
2023-01-02T16:53:19.720Z,101200.19
2023-01-02T16:55:46.539Z,101243.41
2023-01-02T16:58:13.210Z,101242.63
2023-01-02T17:00:43.619Z,101258.13
2023-01-02T17:03:18.940Z,101392.63
2023-01-02T17:06:01.780Z,101199.22
2023-01-02T17:08:31.690Z,101331.97
2023-01-02T17:10:59.919Z,101417.09
2023-01-02T17:13:27.967Z,101286.84
2023-01-02T17:15:54.472Z,101337.25
2023-01-02T17:18:21.602Z,101348.44
2023-01-02T17:20:48.135Z,101287.78
2023-01-02T17:23:15.081Z,101419.66
2023-01-02T17:25:43.681Z,101299.13
2023-01-02T17:28:10.885Z,101352.94
2023-01-02T17:30:40.751Z,101426.63
2023-01-02T17:33:07.520Z,101217.63
2023-01-02T17:35:35.816Z,101385.03
2023-01-02T17:38:02.442Z,101268.75
2023-01-02T17:40:31.813Z,101339.22
2023-01-02T17:43:00.515Z,101428.50
2023-01-02T17:45:27.027Z,101359.09
2023-01-02T17:48:12.316Z,101414.78
2023-01-02T17:50:40.387Z,101341.81
2023-01-02T17:53:08.071Z,101357.44
2023-01-02T17:55:34.653Z,101401.69
2023-01-02T17:58:01.282Z,101408.59
2023-01-02T18:00:28.498Z,101489.38
2023-01-02T18:02:55.057Z,101338.34
2023-01-02T18:05:22.266Z,101495.53
2023-01-02T18:07:48.769Z,101302.75
2023-01-02T18:10:19.951Z,101341.84
2023-01-02T18:12:47.559Z,101395.63
2023-01-02T18:15:15.550Z,101432.13
2023-01-02T18:17:42.806Z,101403.56
2023-01-02T18:20:12.100Z,101414.78
2023-01-02T18:22:44.012Z,101362.69
2023-01-02T18:25:29.743Z,101489.59
2023-01-02T18:27:59.993Z,101473.84
2023-01-02T18:30:27.417Z,101529.47
2023-01-02T18:33:21.202Z,101484.28
2023-01-02T18:35:57.822Z,101515.63
2023-01-02T18:38:45.545Z,101499.97
2023-01-02T18:41:27.132Z,101497.34
2023-01-02T18:44:01.417Z,101458.25
2023-01-02T18:47:03.465Z,101547.69
2023-01-02T18:49:27.051Z,101496.44
2023-01-02T18:52:11.943Z,101559.00
2023-01-02T18:54:44.759Z,101562.47
2023-01-02T18:57:29.127Z,101342.69
2023-01-02T19:00:02.989Z,101416.59
2023-01-02T19:02:48.126Z,101574.69
2023-01-02T19:05:19.997Z,101583.38
2023-01-02T19:07:47.013Z,101398.38
2023-01-02T19:10:36.894Z,101592.09
2023-01-02T19:13:08.052Z,101479.16
2023-01-02T19:19:14.819Z,101423.56
2023-01-02T19:21:41.629Z,101517.38
2023-01-02T19:24:08.021Z,101484.38
2023-01-02T19:26:44.973Z,101465.34
2023-01-02T19:29:11.378Z,101615.75
2023-01-02T19:31:46.906Z,101616.56
2023-01-02T19:34:36.137Z,101572.25
2023-01-02T19:37:11.811Z,101628.78
2023-01-02T19:39:57.552Z,101628.78
2023-01-02T19:42:28.109Z,101592.25
2023-01-02T19:44:58.172Z,101532.28
2023-01-02T19:47:27.269Z,101627.91
2023-01-02T19:49:54.325Z,101567.97
2023-01-02T19:52:21.958Z,101574.91
2023-01-02T19:54:49.152Z,101630.59
2023-01-02T19:57:19.552Z,101663.63
2023-01-02T19:59:47.191Z,101584.53
2023-01-02T20:03:03.070Z,101523.63
2023-01-02T20:05:29.650Z,101468.00
2023-01-02T20:07:57.978Z,101667.16
2023-01-02T20:10:24.749Z,101658.47
2023-01-02T20:12:51.545Z,101673.28
2023-01-02T20:15:24.234Z,101656.75
2023-01-02T20:17:52.387Z,101612.38
2023-01-02T20:20:21.321Z,101682.88
2023-01-02T20:22:51.101Z,101505.38
2023-01-02T20:25:21.061Z,101616.75
2023-01-02T20:27:47.857Z,101508.03
2023-01-02T20:30:20.210Z,101638.50
2023-01-02T20:32:54.060Z,101686.34
2023-01-02T20:35:20.569Z,101606.31
2023-01-02T20:37:47.830Z,101516.72
2023-01-02T20:40:14.707Z,101630.66
2023-01-02T20:42:41.486Z,101543.69
2023-01-02T20:45:08.594Z,101607.16
2023-01-02T20:47:36.273Z,101629.81
2023-01-02T20:50:03.288Z,101595.84
2023-01-02T20:52:29.704Z,101549.75
2023-01-02T20:54:56.193Z,101629.81
2023-01-02T20:57:22.700Z,101648.06
2023-01-02T20:59:49.141Z,101662.00
2023-01-02T21:02:15.667Z,101643.72
2023-01-02T21:04:42.080Z,101728.19
2023-01-02T21:07:09.735Z,101703.78
2023-01-02T21:09:36.231Z,101696.81
2023-01-02T21:12:02.650Z,101663.72
2023-01-02T21:14:33.798Z,101733.41
2023-01-02T21:17:03.655Z,101763.88
2023-01-02T21:19:30.098Z,101761.25
2023-01-02T21:21:56.518Z,101693.31
2023-01-02T21:24:22.837Z,101599.34
2023-01-02T21:26:49.382Z,101553.22
2023-01-02T21:29:15.769Z,101778.69
2023-01-02T21:31:42.175Z,101761.25
2023-01-02T21:34:08.674Z,101560.19
2023-01-02T21:36:38.121Z,101750.81
2023-01-02T21:39:04.696Z,101687.22
2023-01-02T21:41:49.795Z,101674.16
2023-01-02T21:44:16.178Z,101648.91
2023-01-02T21:46:42.609Z,101787.41
2023-01-02T21:49:09.416Z,101750.81
2023-01-02T21:51:36.911Z,101677.63
2023-01-02T21:54:03.384Z,101782.16
2023-01-02T21:56:30.570Z,101779.53
2023-01-02T21:58:57.537Z,101722.91
2023-01-02T22:01:24.237Z,101768.22
2023-01-02T22:03:50.819Z,101796.97
2023-01-02T22:06:18.147Z,101794.38
2023-01-02T22:08:44.616Z,101787.41
2023-01-02T22:11:29.673Z,101674.13
2023-01-02T22:13:56.182Z,101702.03
2023-01-02T22:16:22.764Z,101776.94
2023-01-02T22:18:50.567Z,101694.22
2023-01-02T22:21:16.921Z,101804.00
2023-01-02T22:23:43.325Z,101662.88
2023-01-02T22:26:09.739Z,101741.22
2023-01-02T22:28:36.262Z,101717.69
2023-01-02T22:31:02.724Z,101784.81
2023-01-02T22:33:29.233Z,101806.56
2023-01-02T22:35:55.669Z,101726.41
2023-01-02T22:38:22.029Z,101760.41
2023-01-02T22:40:48.409Z,101811.84
2023-01-02T22:43:20.847Z,101710.72
2023-01-02T22:45:53.235Z,101849.25
2023-01-02T22:48:21.295Z,101858.88
2023-01-02T22:50:49.485Z,101864.13
2023-01-02T22:53:28.695Z,101861.50
2023-01-02T22:55:55.387Z,101859.72
2023-01-02T22:58:22.551Z,101864.09
2023-01-02T23:00:59.319Z,101825.69
2023-01-02T23:03:28.303Z,101844.88
2023-01-02T23:05:54.787Z,101819.63
2023-01-02T23:08:21.252Z,101822.25
2023-01-02T23:10:47.589Z,101827.44
2023-01-02T23:13:14.044Z,101771.69
2023-01-02T23:16:00.496Z,101837.06
2023-01-02T23:18:46.623Z,101757.72
2023-01-02T23:21:15.547Z,101818.75
2023-01-02T23:23:41.870Z,101713.31
2023-01-02T23:26:08.335Z,101865.81
2023-01-02T23:31:21.477Z,101838.75
2023-01-02T23:33:47.907Z,101869.25
2023-01-02T23:36:14.369Z,101880.59
2023-01-02T23:38:40.730Z,101860.53
2023-01-02T23:41:07.101Z,101881.44
2023-01-02T23:43:33.398Z,101837.78
2023-01-02T23:45:59.901Z,101863.97
2023-01-02T23:48:26.306Z,101782.06
2023-01-02T23:50:57.594Z,101874.38
2023-01-02T23:53:24.037Z,101881.44
2023-01-02T23:55:50.449Z,101889.22
2023-01-02T23:58:16.864Z,101760.22
